createdAt,value
2019-03-05T00:02:08.616Z,90.59
2019-03-05T00:04:40.651Z,89.29
2019-03-05T00:07:12.702Z,88.91
2019-03-05T00:09:44.636Z,88.16
2019-03-05T00:12:16.861Z,87.80
2019-03-05T00:14:48.710Z,88.08
2019-03-05T00:17:20.651Z,88.28
2019-03-05T00:19:52.663Z,88.43
2019-03-05T00:22:24.812Z,88.15
2019-03-05T00:25:07.573Z,87.58
2019-03-05T00:27:50.787Z,87.80
2019-03-05T00:30:34.276Z,87.66
2019-03-05T00:34:00.605Z,87.23
2019-03-05T00:37:10.608Z,87.21
2019-03-05T00:40:15.447Z,86.67
2019-03-05T00:43:49.066Z,86.75
2019-03-05T00:47:20.358Z,87.27
2019-03-05T00:51:01.751Z,85.75
2019-03-05T00:54:11.903Z,85.72
2019-03-05T00:57:07.798Z,86.03
2019-03-05T01:00:42.547Z,85.57
2019-03-05T01:03:27.070Z,85.32
2019-03-05T01:06:21.382Z,85.30
2019-03-05T01:08:54.822Z,85.24
2019-03-05T01:11:27.300Z,85.34
2019-03-05T01:13:59.633Z,85.57
2019-03-05T01:16:33.862Z,86.11
2019-03-05T01:19:05.939Z,86.25
2019-03-05T01:21:37.931Z,85.91
2019-03-05T01:24:11.511Z,85.55
2019-03-05T01:26:43.769Z,85.82
2019-03-05T01:29:15.596Z,86.49
2019-03-05T01:32:05.754Z,85.72
2019-03-05T01:35:14.720Z,85.64
2019-03-05T01:37:46.825Z,86.27
2019-03-05T01:40:35.271Z,86.33
2019-03-05T01:43:07.258Z,86.55
2019-03-05T01:45:39.160Z,86.92
2019-03-05T01:48:11.470Z,86.17
2019-03-05T01:50:43.389Z,86.62
2019-03-05T01:53:15.300Z,86.79
2019-03-05T01:55:47.206Z,86.04
2019-03-05T01:58:19.114Z,86.87
2019-03-05T02:00:51.013Z,85.76
2019-03-05T02:03:22.850Z,85.22
2019-03-05T02:05:54.751Z,85.73
2019-03-05T02:08:26.694Z,85.35
2019-03-05T02:10:58.775Z,85.76
2019-03-05T02:13:30.746Z,85.03
2019-03-05T02:16:02.576Z,84.79
2019-03-05T02:18:34.420Z,84.87
2019-03-05T02:21:06.356Z,84.54
2019-03-05T02:24:35.622Z,84.77
2019-03-05T02:28:02.997Z,84.85
2019-03-05T02:31:27.710Z,84.62
2019-03-05T02:35:02.660Z,85.18
2019-03-05T02:38:54.458Z,84.81
2019-03-05T02:41:56.424Z,84.96
2019-03-05T02:45:35.809Z,85.46
2019-03-05T02:49:11.362Z,85.20
2019-03-05T02:52:40.271Z,85.09
2019-03-05T02:56:36.368Z,85.49
2019-03-05T02:59:06.131Z,86.18
2019-03-05T03:02:08.913Z,85.68
2019-03-05T03:04:43.822Z,85.92
2019-03-05T03:07:15.667Z,85.34
2019-03-05T03:10:34.632Z,86.20
2019-03-05T03:13:06.757Z,85.82
2019-03-05T03:15:38.661Z,86.42
2019-03-05T03:18:10.591Z,85.86
2019-03-05T03:20:42.430Z,85.67
2019-03-05T03:23:14.343Z,86.08
2019-03-05T03:25:46.316Z,85.98
2019-03-05T03:28:18.080Z,86.42
2019-03-05T03:30:49.921Z,85.84
2019-03-05T03:33:21.973Z,85.60
2019-03-05T03:35:53.716Z,87.14
2019-03-05T03:38:25.552Z,86.16
2019-03-05T03:40:58.515Z,86.24
2019-03-05T03:43:30.508Z,86.38
2019-03-05T03:46:03.368Z,85.99
2019-03-05T03:48:35.532Z,86.23
2019-03-05T03:51:07.451Z,85.84
2019-03-05T03:53:39.563Z,86.12
2019-03-05T03:56:11.585Z,85.99
2019-03-05T03:58:43.701Z,85.64
2019-03-05T04:01:15.499Z,86.17
2019-03-05T04:03:47.211Z,85.63
2019-03-05T04:06:19.066Z,85.81
2019-03-05T04:08:51.111Z,85.38
2019-03-05T04:11:22.877Z,85.37
2019-03-05T04:13:54.842Z,85.26
2019-03-05T04:16:26.655Z,85.80
2019-03-05T04:19:00.036Z,85.68
2019-03-05T04:21:31.749Z,85.39
2019-03-05T04:24:03.473Z,84.92
2019-03-05T04:26:35.264Z,85.16
2019-03-05T04:29:07.073Z,85.16
2019-03-05T04:31:38.850Z,85.25
2019-03-05T04:34:11.471Z,85.64
2019-03-05T04:36:43.500Z,85.17
2019-03-05T04:39:15.356Z,85.68
2019-03-05T04:41:47.227Z,85.38
2019-03-05T04:44:27.215Z,85.54
2019-03-05T04:46:59.118Z,85.38
2019-03-05T04:49:35.982Z,85.69
2019-03-05T04:52:12.081Z,86.27
2019-03-05T04:54:44.121Z,85.57
2019-03-05T04:57:15.923Z,85.91
2019-03-05T04:59:47.741Z,86.07
2019-03-05T05:02:19.565Z,86.04
2019-03-05T05:04:51.343Z,85.97
2019-03-05T05:07:23.131Z,85.91
2019-03-05T05:09:54.862Z,85.93
2019-03-05T05:12:26.765Z,86.86
2019-03-05T05:14:58.821Z,87.54
2019-03-05T05:17:30.777Z,87.44
2019-03-05T05:20:02.580Z,87.25
2019-03-05T05:22:34.400Z,87.45
2019-03-05T05:25:06.393Z,86.96
2019-03-05T05:27:38.364Z,87.21
2019-03-05T05:30:33.927Z,87.19
2019-03-05T05:33:06.179Z,86.77
2019-03-05T05:35:38.078Z,87.00
2019-03-05T05:38:09.810Z,87.06
2019-03-05T05:40:44.078Z,87.13
2019-03-05T05:43:22.459Z,87.15
2019-03-05T05:45:54.628Z,87.07
2019-03-05T05:48:26.430Z,86.86
2019-03-05T05:50:58.541Z,86.76
2019-03-05T05:53:30.542Z,86.82
2019-03-05T05:56:03.562Z,86.23
2019-03-05T05:58:35.603Z,85.84
2019-03-05T06:01:10.850Z,85.53
2019-03-05T06:03:42.634Z,85.42
2019-03-05T06:06:14.395Z,85.16
2019-03-05T06:08:46.095Z,85.57
2019-03-05T06:11:17.811Z,85.62
2019-03-05T06:13:49.841Z,85.68
2019-03-05T06:16:21.637Z,86.46
2019-03-05T06:18:53.344Z,86.22
2019-03-05T06:21:25.071Z,86.64
2019-03-05T06:23:56.792Z,86.74
2019-03-05T06:26:28.520Z,86.32
2019-03-05T06:29:00.229Z,86.11
2019-03-05T06:31:32.267Z,86.42
2019-03-05T06:34:04.213Z,86.28
2019-03-05T06:36:57.698Z,86.68
2019-03-05T06:39:29.483Z,87.12
2019-03-05T06:42:01.205Z,86.48
2019-03-05T06:44:32.930Z,86.53
2019-03-05T06:47:04.718Z,87.25
2019-03-05T06:49:36.430Z,86.99
2019-03-05T06:52:08.418Z,86.39
2019-03-05T06:54:40.120Z,86.81
2019-03-05T06:57:12.555Z,86.49
2019-03-05T06:59:44.262Z,86.55
2019-03-05T07:02:16.069Z,86.68
2019-03-05T07:04:56.861Z,86.63
2019-03-05T07:07:31.294Z,85.88
2019-03-05T07:10:33.739Z,85.75
2019-03-05T07:13:17.050Z,85.59
2019-03-05T07:16:23.500Z,85.88
2019-03-05T07:19:29.333Z,85.16
2019-03-05T07:22:34.147Z,84.80
2019-03-05T07:25:06.655Z,84.68
2019-03-05T07:27:46.210Z,84.89
2019-03-05T07:30:20.731Z,85.09
2019-03-05T07:32:52.904Z,84.63
2019-03-05T07:35:26.643Z,85.06
2019-03-05T07:37:58.437Z,85.07
2019-03-05T07:40:30.252Z,85.22
2019-03-05T07:43:02.209Z,84.40
2019-03-05T07:45:34.005Z,84.21
2019-03-05T07:48:05.809Z,83.72
2019-03-05T07:50:37.589Z,84.30
2019-03-05T07:53:09.375Z,83.10
2019-03-05T07:55:41.490Z,83.00
2019-03-05T07:58:14.179Z,83.47
2019-03-05T08:00:45.896Z,82.37
2019-03-05T08:03:17.619Z,81.46
2019-03-05T08:05:49.333Z,81.49
2019-03-05T08:09:14.755Z,81.34
2019-03-05T08:11:46.549Z,81.28
2019-03-05T08:15:11.910Z,80.23
2019-03-05T08:17:43.722Z,79.82
2019-03-05T08:20:15.574Z,78.33
2019-03-05T08:22:47.391Z,78.68
2019-03-05T08:25:19.160Z,78.54
2019-03-05T08:27:50.949Z,77.49
2019-03-05T08:30:22.743Z,77.91
2019-03-05T08:32:54.813Z,77.72
2019-03-05T08:35:26.883Z,78.60
2019-03-05T08:37:58.579Z,77.40
2019-03-05T08:40:30.387Z,77.58
2019-03-05T08:43:02.118Z,77.61
2019-03-05T08:45:33.890Z,78.13
2019-03-05T08:48:05.715Z,77.08
2019-03-05T08:50:37.421Z,76.98
2019-03-05T08:53:11.072Z,77.92
2019-03-05T08:55:42.785Z,76.94
2019-03-05T08:58:14.588Z,76.91
2019-03-05T09:00:48.194Z,77.94
2019-03-05T09:03:20.049Z,77.11
2019-03-05T09:05:51.833Z,76.78
2019-03-05T09:08:23.706Z,75.75
2019-03-05T09:10:55.857Z,75.57
2019-03-05T09:13:32.667Z,75.57
2019-03-05T09:16:01.231Z,74.58
2019-03-05T09:18:32.967Z,73.35
2019-03-05T09:21:04.856Z,73.12
2019-03-05T09:23:36.582Z,72.28
2019-03-05T09:26:08.368Z,72.33
2019-03-05T09:28:40.092Z,71.98
2019-03-05T09:31:11.802Z,70.57
2019-03-05T09:33:43.533Z,70.58
2019-03-05T09:36:15.262Z,70.03
2019-03-05T09:38:47.042Z,69.17
2019-03-05T09:41:18.898Z,68.78
2019-03-05T09:43:50.960Z,66.58
2019-03-05T09:46:22.678Z,67.81
2019-03-05T09:48:54.489Z,68.08
2019-03-05T09:51:26.516Z,69.06
2019-03-05T09:53:58.424Z,69.03
2019-03-05T09:56:30.180Z,67.94
2019-03-05T09:59:01.899Z,66.72
2019-03-05T10:01:33.682Z,67.25
2019-03-05T10:04:05.654Z,65.82
2019-03-05T10:06:37.370Z,66.02
2019-03-05T10:09:09.849Z,65.86
2019-03-05T10:11:42.008Z,66.27
2019-03-05T10:14:13.736Z,65.98
2019-03-05T10:16:45.514Z,65.20
2019-03-05T10:19:17.503Z,63.44
2019-03-05T10:21:49.292Z,63.81
2019-03-05T10:24:21.289Z,63.80
2019-03-05T10:26:53.150Z,63.96
2019-03-05T10:29:24.872Z,62.43
2019-03-05T10:31:56.840Z,61.19
2019-03-05T10:34:28.825Z,60.98
2019-03-05T10:37:00.671Z,62.24
2019-03-05T10:39:32.464Z,62.14
2019-03-05T10:42:04.247Z,62.12
2019-03-05T10:44:36.372Z,60.83
2019-03-05T10:47:08.147Z,60.65
2019-03-05T10:49:40.123Z,61.17
2019-03-05T10:52:11.938Z,61.88
2019-03-05T10:54:44.008Z,62.53
2019-03-05T10:57:15.880Z,62.88
2019-03-05T10:59:47.759Z,61.86
2019-03-05T11:02:20.308Z,61.91
2019-03-05T11:04:52.556Z,61.04
2019-03-05T11:07:25.168Z,60.70
2019-03-05T11:09:56.896Z,60.79
2019-03-05T11:12:29.000Z,60.81
2019-03-05T11:15:00.717Z,59.96
2019-03-05T11:17:34.648Z,60.89
2019-03-05T11:20:09.223Z,61.49
2019-03-05T11:22:41.178Z,62.33
2019-03-05T11:25:13.500Z,63.93
2019-03-05T11:27:45.352Z,64.99
2019-03-05T11:30:23.478Z,63.81
2019-03-05T11:32:55.419Z,64.07
2019-03-05T11:35:28.203Z,64.43
2019-03-05T11:38:00.093Z,62.87
2019-03-05T11:40:32.736Z,63.72
2019-03-05T11:43:14.288Z,64.20
2019-03-05T11:45:46.525Z,63.41
2019-03-05T11:48:18.473Z,63.40
2019-03-05T11:50:51.623Z,62.87
2019-03-05T11:53:23.605Z,61.55
2019-03-05T11:55:55.327Z,61.82
2019-03-05T11:58:27.133Z,61.74
2019-03-05T12:01:11.050Z,64.46
2019-03-05T12:03:42.759Z,64.80
2019-03-05T12:06:14.556Z,69.17
2019-03-05T12:08:46.535Z,72.17
2019-03-05T12:11:18.476Z,73.08
2019-03-05T12:13:50.270Z,72.20
2019-03-05T12:16:23.036Z,71.14
2019-03-05T12:18:54.751Z,70.12
2019-03-05T12:21:26.953Z,70.90
2019-03-05T12:23:59.671Z,71.31
2019-03-05T12:26:31.477Z,70.71
2019-03-05T12:29:03.336Z,71.52
2019-03-05T12:31:35.206Z,73.08
2019-03-05T12:34:06.994Z,72.98
2019-03-05T12:36:38.792Z,73.64
2019-03-05T12:39:14.269Z,74.03
2019-03-05T12:41:45.996Z,74.61
2019-03-05T12:44:17.721Z,76.04
2019-03-05T12:46:49.438Z,75.10
2019-03-05T12:49:21.159Z,76.18
2019-03-05T12:51:52.889Z,75.45
2019-03-05T12:54:24.913Z,75.14
2019-03-05T12:56:56.709Z,74.99
2019-03-05T12:59:28.817Z,75.50
2019-03-05T13:02:00.611Z,75.44
2019-03-05T13:04:32.314Z,75.76
2019-03-05T13:07:04.045Z,76.42
2019-03-05T13:09:35.750Z,75.64
2019-03-05T13:12:07.556Z,77.42
2019-03-05T13:14:42.734Z,78.93
2019-03-05T13:17:13.007Z,80.02
2019-03-05T13:19:47.903Z,81.11
2019-03-05T13:22:18.614Z,82.48
2019-03-05T13:24:51.280Z,82.33
2019-03-05T13:27:23.786Z,83.77
2019-03-05T13:29:55.561Z,84.16
2019-03-05T13:32:27.309Z,83.25
2019-03-05T13:34:59.069Z,84.52
2019-03-05T13:37:30.794Z,83.97
2019-03-05T13:40:02.660Z,83.81
2019-03-05T13:42:34.937Z,84.13
2019-03-05T13:45:09.306Z,83.78
2019-03-05T13:47:44.818Z,83.65
2019-03-05T13:50:57.268Z,82.93
2019-03-05T13:54:21.088Z,82.22
2019-03-05T13:57:34.487Z,81.88
2019-03-05T14:00:08.571Z,82.26
2019-03-05T14:03:21.377Z,83.01
2019-03-05T14:06:32.311Z,82.81
2019-03-05T14:09:14.951Z,83.46
2019-03-05T14:11:51.515Z,83.53
2019-03-05T14:14:25.873Z,84.71
2019-03-05T14:17:03.194Z,84.88
2019-03-05T14:19:35.249Z,85.53
2019-03-05T14:22:07.118Z,87.00
2019-03-05T14:24:38.985Z,88.10
2019-03-05T14:27:10.847Z,86.66
2019-03-05T14:29:42.718Z,87.78
2019-03-05T14:32:17.022Z,88.53
2019-03-05T14:35:12.142Z,88.03
2019-03-05T14:37:44.023Z,87.96
2019-03-05T14:40:28.247Z,89.02
2019-03-05T14:43:00.249Z,87.96
2019-03-05T14:45:34.597Z,87.88
2019-03-05T14:48:06.886Z,88.67
2019-03-05T14:50:39.246Z,88.17
2019-03-05T14:53:11.422Z,88.33
2019-03-05T14:55:43.429Z,88.66
2019-03-05T14:58:15.162Z,89.79
2019-03-05T15:00:46.942Z,88.58
2019-03-05T15:03:20.807Z,90.14
2019-03-05T15:05:54.278Z,89.19
2019-03-05T15:08:26.060Z,91.64
2019-03-05T15:10:57.874Z,90.55
2019-03-05T15:13:29.665Z,92.16
2019-03-05T15:16:01.398Z,91.71
2019-03-05T15:18:33.253Z,93.12
2019-03-05T15:21:05.150Z,92.99
2019-03-05T15:23:37.087Z,92.66
2019-03-05T15:26:08.856Z,92.69
2019-03-05T15:28:40.568Z,91.92
2019-03-05T15:31:12.439Z,91.90
2019-03-05T15:33:44.280Z,91.10
2019-03-05T15:36:23.856Z,91.48
2019-03-05T15:38:50.497Z,92.29
2019-03-05T15:41:22.243Z,92.19
2019-03-05T15:43:54.001Z,92.64
2019-03-05T15:46:25.693Z,92.62
2019-03-05T15:48:57.713Z,92.74
2019-03-05T15:51:29.425Z,93.27
2019-03-05T15:54:01.188Z,93.44
2019-03-05T15:56:32.973Z,93.82
2019-03-05T15:59:04.698Z,93.52
2019-03-05T16:01:36.477Z,92.29
2019-03-05T16:04:08.204Z,92.09
2019-03-05T16:06:39.909Z,93.18
2019-03-05T16:09:18.162Z,93.07
2019-03-05T16:11:49.860Z,92.15
2019-03-05T16:14:21.654Z,92.72
2019-03-05T16:16:53.367Z,92.03
2019-03-05T16:19:25.094Z,92.16
2019-03-05T16:21:56.808Z,93.28
2019-03-05T16:24:28.539Z,93.34
2019-03-05T16:27:00.237Z,93.19
2019-03-05T16:29:52.057Z,92.59
2019-03-05T16:32:53.652Z,92.91
2019-03-05T16:35:42.691Z,91.95
2019-03-05T16:38:35.918Z,92.53
2019-03-05T16:41:24.438Z,92.11
2019-03-05T16:44:01.106Z,92.28
2019-03-05T16:47:00.679Z,92.82
2019-03-05T16:49:38.842Z,92.62
2019-03-05T16:52:16.124Z,92.51
2019-03-05T16:54:57.995Z,93.12
2019-03-05T16:57:52.346Z,92.24
2019-03-05T17:00:49.328Z,92.72
2019-03-05T17:03:40.066Z,91.66
2019-03-05T17:06:29.303Z,91.97
2019-03-05T17:09:23.755Z,91.75
2019-03-05T17:11:58.712Z,92.14
2019-03-05T17:14:30.520Z,92.27
2019-03-05T17:17:02.617Z,92.74
2019-03-05T17:19:35.999Z,92.39
2019-03-05T17:22:07.785Z,92.62
2019-03-05T17:24:39.661Z,92.64
2019-03-05T17:27:11.449Z,92.70
2019-03-05T17:29:43.188Z,92.51
2019-03-05T17:32:15.703Z,92.62
2019-03-05T17:34:47.563Z,92.42
2019-03-05T17:37:19.266Z,92.68
2019-03-05T17:39:51.079Z,92.44
2019-03-05T17:42:22.783Z,92.59
2019-03-05T17:44:55.490Z,92.43
2019-03-05T17:47:27.496Z,92.62
2019-03-05T17:49:59.539Z,92.79
2019-03-05T17:52:31.477Z,93.32
2019-03-05T17:55:03.361Z,95.07
2019-03-05T17:57:36.140Z,93.06
2019-03-05T18:00:10.847Z,92.83
2019-03-05T18:02:44.222Z,92.93
2019-03-05T18:05:16.216Z,92.94
2019-03-05T18:07:47.997Z,93.15
2019-03-05T18:10:20.340Z,93.09
2019-03-05T18:12:52.443Z,92.77
2019-03-05T18:15:24.360Z,94.46
2019-03-05T18:17:56.175Z,94.32
2019-03-05T18:20:28.506Z,94.28
2019-03-05T18:23:00.368Z,94.01
2019-03-05T18:25:33.532Z,93.31
2019-03-05T18:28:05.569Z,93.22
2019-03-05T18:30:37.525Z,93.47
2019-03-05T18:33:09.229Z,93.53
2019-03-05T18:35:41.459Z,93.37
2019-03-05T18:38:13.371Z,94.22
2019-03-05T18:40:45.301Z,93.16
2019-03-05T18:43:17.086Z,93.00
2019-03-05T18:45:48.838Z,93.10
2019-03-05T18:48:20.511Z,93.07
2019-03-05T18:50:52.999Z,93.17
2019-03-05T18:53:24.835Z,93.89
2019-03-05T18:55:56.763Z,93.31
2019-03-05T18:58:28.603Z,93.08
2019-03-05T19:01:00.835Z,92.79
2019-03-05T19:03:32.932Z,92.58
2019-03-05T19:06:04.965Z,93.03
2019-03-05T19:08:36.698Z,92.81
2019-03-05T19:11:08.699Z,92.73
2019-03-05T19:13:40.617Z,93.22
2019-03-05T19:16:12.616Z,92.65
2019-03-05T19:18:45.518Z,92.03
2019-03-05T19:21:17.278Z,92.04
2019-03-05T19:23:49.087Z,92.67
2019-03-05T19:26:21.023Z,92.15
2019-03-05T19:28:52.774Z,92.21
2019-03-05T19:31:24.516Z,92.06
2019-03-05T19:33:56.580Z,91.85
2019-03-05T19:36:28.979Z,91.73
2019-03-05T19:39:00.791Z,92.26
2019-03-05T19:41:34.341Z,92.85
2019-03-05T19:44:07.068Z,92.07
2019-03-05T19:46:39.002Z,91.95
2019-03-05T19:49:11.532Z,92.47
2019-03-05T19:51:43.472Z,92.01
2019-03-05T19:54:15.483Z,92.45
2019-03-05T19:56:47.484Z,92.55
2019-03-05T19:59:19.404Z,91.75
2019-03-05T20:01:51.425Z,91.62
2019-03-05T20:04:23.367Z,91.29
2019-03-05T20:06:55.326Z,91.96
2019-03-05T20:09:27.195Z,91.81
2019-03-05T20:12:01.328Z,91.96
2019-03-05T20:14:33.382Z,92.09
2019-03-05T20:17:05.289Z,92.55
2019-03-05T20:19:37.359Z,91.75
2019-03-05T20:22:09.360Z,92.41
2019-03-05T20:24:42.507Z,93.18
2019-03-05T20:27:16.265Z,92.14
2019-03-05T20:29:47.822Z,92.58
2019-03-05T20:32:19.627Z,91.41
2019-03-05T20:34:51.357Z,91.93
2019-03-05T20:37:23.201Z,91.62
2019-03-05T20:39:55.099Z,91.20
2019-03-05T20:42:27.913Z,91.55
2019-03-05T20:44:59.988Z,91.25
2019-03-05T20:47:31.798Z,90.98
2019-03-05T20:50:03.762Z,92.23
2019-03-05T20:52:37.308Z,91.65
2019-03-05T20:55:12.458Z,91.61
2019-03-05T20:57:44.770Z,91.32
2019-03-05T21:00:28.284Z,91.11
2019-03-05T21:03:02.743Z,91.11
2019-03-05T21:05:40.273Z,91.49
2019-03-05T21:08:12.340Z,90.81
2019-03-05T21:10:44.436Z,90.64
2019-03-05T21:13:16.323Z,91.60
2019-03-05T21:15:48.221Z,91.38
2019-03-05T21:18:20.242Z,91.32
2019-03-05T21:20:51.988Z,91.78
2019-03-05T21:23:23.927Z,91.94
2019-03-05T21:25:55.795Z,91.89
2019-03-05T21:28:28.647Z,91.30
2019-03-05T21:31:00.461Z,91.02
2019-03-05T21:33:32.411Z,90.65
2019-03-05T21:36:04.237Z,90.97
2019-03-05T21:38:36.072Z,91.28
2019-03-05T21:41:07.928Z,90.21
2019-03-05T21:43:40.618Z,91.16
2019-03-05T21:46:16.766Z,90.60
2019-03-05T21:48:49.989Z,90.22
2019-03-05T21:51:22.044Z,90.34
2019-03-05T21:53:53.785Z,90.54
2019-03-05T21:56:26.002Z,90.35
2019-03-05T21:58:57.891Z,90.10
2019-03-05T22:01:29.754Z,90.77
2019-03-05T22:04:01.507Z,91.45
2019-03-05T22:06:33.330Z,91.59
2019-03-05T22:09:06.989Z,91.51
2019-03-05T22:11:40.307Z,91.70
2019-03-05T22:14:12.357Z,91.83
2019-03-05T22:16:44.096Z,91.16
2019-03-05T22:19:15.819Z,91.16
2019-03-05T22:21:47.682Z,90.73
2019-03-05T22:24:19.505Z,91.02
2019-03-05T22:26:51.214Z,91.20
2019-03-05T22:29:22.943Z,91.28
2019-03-05T22:31:55.699Z,91.17
2019-03-05T22:34:27.677Z,91.59
2019-03-05T22:36:59.389Z,91.76
2019-03-05T22:39:31.292Z,91.48
2019-03-05T22:42:03.078Z,91.98
2019-03-05T22:44:34.872Z,92.28
2019-03-05T22:47:06.738Z,92.96
2019-03-05T22:49:38.557Z,93.40
2019-03-05T22:52:10.276Z,93.35
2019-03-05T22:54:42.333Z,93.32
2019-03-05T22:57:14.111Z,93.78
2019-03-05T22:59:45.842Z,93.65
2019-03-05T23:02:17.629Z,94.01
2019-03-05T23:04:49.739Z,94.02
2019-03-05T23:07:21.520Z,93.93
2019-03-05T23:09:53.568Z,94.36
2019-03-05T23:12:25.696Z,93.91
2019-03-05T23:14:57.647Z,93.85
2019-03-05T23:17:30.722Z,93.80
2019-03-05T23:20:02.865Z,93.47
2019-03-05T23:22:34.818Z,92.91
2019-03-05T23:25:06.872Z,92.54
2019-03-05T23:27:38.952Z,92.47
2019-03-05T23:30:11.693Z,93.13
2019-03-05T23:32:43.855Z,92.62
2019-03-05T23:35:16.197Z,92.48
2019-03-05T23:37:48.086Z,92.31
2019-03-05T23:40:20.358Z,91.87
2019-03-05T23:42:52.142Z,91.56
2019-03-05T23:45:24.226Z,91.70
2019-03-05T23:47:55.929Z,91.53
2019-03-05T23:50:27.737Z,91.75
2019-03-05T23:52:59.819Z,92.19
2019-03-05T23:55:31.894Z,91.83
2019-03-05T23:58:03.607Z,91.64
